Filia Joy — 3FIN9 — position and weather

sailwx.info

Track history (hours):
 
Tides and Currents Weather Stations Pressure Air Temp Water Temp Dewpoint Dewpoint Depression Visibility Wind Speed Wind Dir Waves Ship Positions

Filia Joy

Last reported at 2017-Dec-29 20:50 UTC. Time now 2018-Jan-22 18:35 UTC.
Position N 09°11' W 079°52'.
Warning: this ship's position is 23 days out of date.

Length 190 m; draft 12 m.

Type: Cargo ship. MMSI: 371999000.

Date/timePositionNaut miles runAvg speedWind from/ knotsBaromVisibWave heightAir tempDewpointWater temp
2017-Dec-29 20:50N 09°11' W 079°52'3 9.6
2017-Dec-29 20:29N 09°13' W 079°55'3 6.1
2017-Dec-29 20:00N 09°15' W 079°55'0 0.0
2017-Dec-29 19:28N 09°15' W 079°55'0 0.2
2017-Dec-29 18:58N 09°15' W 079°55'0 0.1
2017-Dec-29 18:28N 09°15' W 079°55'0 0.0
2017-Dec-29 17:58N 09°15' W 079°55'0 0.1
2017-Dec-29 17:28N 09°15' W 079°55'0 0.1
2017-Dec-29 16:58N 09°15' W 079°55'0 0.1
2017-Dec-29 16:28N 09°15' W 079°55'0 0.0
2017-Dec-29 15:58N 09°15' W 079°55'0 0.1
2017-Dec-29 15:28N 09°15' W 079°55'0 0.1
2017-Dec-29 14:55N 09°15' W 079°55'0 0.1
2017-Dec-29 14:28N 09°15' W 079°55'0 0.1
2017-Dec-29 13:58N 09°15' W 079°55'0 0.2
2017-Dec-29 13:25N 09°15' W 079°55'0 0.1
2017-Dec-29 12:52N 09°15' W 079°55'0 0.0
2017-Dec-29 12:28N 09°15' W 079°55'0 0.0
2017-Dec-29 11:56N 09°15' W 079°55'0 0.6
2017-Dec-29 11:31N 09°15' W 079°55'1 1.7
2017-Dec-29 11:00N 09°16' W 079°55'0 0.3
2017-Dec-29 10:30N 09°16' W 079°55'0 0.3
2017-Dec-29 10:00N 09°17' W 079°55'0 0.8
2017-Dec-29 09:30N 09°17' W 079°55'2 4.0
2017-Dec-29 09:00N 09°19' W 079°55'4 7.8
2017-Dec-29 08:30N 09°23' W 079°55'4 7.4
2017-Dec-29 08:00N 09°27' W 079°55'2 3.3
2017-Dec-29 07:30N 09°27' W 079°57'0 0.4
2017-Dec-29 06:59N 09°27' W 079°57'0 0.1
2017-Dec-29 06:29N 09°27' W 079°57'0 0.3
2017-Dec-29 05:56N 09°27' W 079°57'1 3.2
2017-Dec-29 05:30N 09°27' W 079°56'5 9.2
2017-Dec-29 05:00N 09°31' W 079°54'611.4
2017-Dec-29 04:30N 09°37' W 079°54'  
2017-Dec-21 16:21N 29°37' W 089°53'3 2.0
2017-Dec-21 14:39N 29°35' W 089°49'0 0.0
2017-Dec-21 14:27N 29°35' W 089°49'0 0.0
2017-Dec-21 09:09N 29°35' W 089°49'0 0.0
2017-Dec-21 08:21N 29°35' W 089°49'0 0.0
2017-Dec-21 07:54N 29°35' W 089°49'  
Track history (hours):
 
Tides and Currents Weather Stations Pressure Air Temp Water Temp Dewpoint Dewpoint Depression Visibility Wind Speed Wind Dir Waves Ship Positions

Filia Joy

Last reported at 2017-Dec-29 20:50 UTC. Time now 2018-Jan-22 18:35 UTC.
Position N 09°11' W 079°52'.
Warning: this ship's position is 23 days out of date.

Length 190 m; draft 12 m.

Type: Cargo ship. MMSI: 371999000.

Date/timePositionNaut miles runAvg speedWind from/ knotsBaromVisibWave heightAir tempDewpointWater temp
2017-Dec-29 20:50N 09°11' W 079°52'3 9.6
2017-Dec-29 20:29N 09°13' W 079°55'3 6.1
2017-Dec-29 20:00N 09°15' W 079°55'0 0.0
2017-Dec-29 19:28N 09°15' W 079°55'0 0.2
2017-Dec-29 18:58N 09°15' W 079°55'0 0.1
2017-Dec-29 18:28N 09°15' W 079°55'0 0.0
2017-Dec-29 17:58N 09°15' W 079°55'0 0.1
2017-Dec-29 17:28N 09°15' W 079°55'0 0.1
2017-Dec-29 16:58N 09°15' W 079°55'0 0.1
2017-Dec-29 16:28N 09°15' W 079°55'0 0.0
2017-Dec-29 15:58N 09°15' W 079°55'0 0.1
2017-Dec-29 15:28N 09°15' W 079°55'0 0.1
2017-Dec-29 14:55N 09°15' W 079°55'0 0.1
2017-Dec-29 14:28N 09°15' W 079°55'0 0.1
2017-Dec-29 13:58N 09°15' W 079°55'0 0.2
2017-Dec-29 13:25N 09°15' W 079°55'0 0.1
2017-Dec-29 12:52N 09°15' W 079°55'0 0.0
2017-Dec-29 12:28N 09°15' W 079°55'0 0.0
2017-Dec-29 11:56N 09°15' W 079°55'0 0.6
2017-Dec-29 11:31N 09°15' W 079°55'1 1.7
2017-Dec-29 11:00N 09°16' W 079°55'0 0.3
2017-Dec-29 10:30N 09°16' W 079°55'0 0.3
2017-Dec-29 10:00N 09°17' W 079°55'0 0.8
2017-Dec-29 09:30N 09°17' W 079°55'2 4.0
2017-Dec-29 09:00N 09°19' W 079°55'4 7.8
2017-Dec-29 08:30N 09°23' W 079°55'4 7.4
2017-Dec-29 08:00N 09°27' W 079°55'2 3.3
2017-Dec-29 07:30N 09°27' W 079°57'0 0.4
2017-Dec-29 06:59N 09°27' W 079°57'0 0.1
2017-Dec-29 06:29N 09°27' W 079°57'0 0.3
2017-Dec-29 05:56N 09°27' W 079°57'1 3.2
2017-Dec-29 05:30N 09°27' W 079°56'5 9.2
2017-Dec-29 05:00N 09°31' W 079°54'611.4
2017-Dec-29 04:30N 09°37' W 079°54'  
2017-Dec-21 16:21N 29°37' W 089°53'3 2.0
2017-Dec-21 14:39N 29°35' W 089°49'0 0.0
2017-Dec-21 14:27N 29°35' W 089°49'0 0.0
2017-Dec-21 09:09N 29°35' W 089°49'0 0.0
2017-Dec-21 08:21N 29°35' W 089°49'0 0.0
2017-Dec-21 07:54N 29°35' W 089°49'  

Dump ship's entire track history